Ararat, Virginia
Current Conditions -  °F | °C
As of 1:35 PM on Friday 31 Oct 2014 (Local Time) from KMWK Reporting Station
Overcast Overcast  
Wind Chill: 53°   Ceiling: 2600
Heat Index: 53°   Visibility: 10mi
Dew Point: 38°   Wind: 3mph
Humidity: 58%   Direction: 80°E
Pressure: 29.9"   Gusts: NA
Location:  36.6°N, 80.51°W
Report Text: KMWK 311735Z AUTO 08003KT 10SM OVC026 12/04 A2990 RMK AO2 T01160036
Loading
Personal Weather Stations






























Interactive Weather Map
Tropical Storm Tracking
New forecast layout! Learn more

10-Day Weather Forecast

Advertisements
Track Severe Weather on mobile